Terminal Aerodrome Forecast
Issued by NWS

Home | Current Version | Previous Version | Text Only | Print | Product List | Glossary On
Versions: 1 2 3 4 5 6 7 8 9 10 11 12 13 14 15
000
FTAK31 PAJN 301700
TAFAJN
TAF
PAJN 301740Z 3018/3118 00000KT P6SM SCT060 SCT150
     FM302100 08005KT P6SM SCT050 WS020/06025KT
     FM310300 10005KT P6SM VCSH BKN050 BKN100
     FM310600 VRB03KT P6SM -RA OVC050
     FM310900 10005KT 5SM -RA BR SCT025 OVC050
     FM311500 11008KT 4SM -RA BR BKN025 OVC050=

USA.gov is the U.S. government's official web portal to all federal, state and local government web resources and services.